Time;durP1;ratioP1;P1;durP2;ratioP2;P2;SDS_P1;SDS_P2;PMS_P1;PMS_P2;Temp;Humidity;BMP_temperature;BMP_pressure;BME280_temperature;BME280_humidity;BME280_pressure;Samples;Min_cycle;Max_cycle;Signal;HPM_P1;HPM_P2
2020/12/26 00:00:22;;;;;;;27.90;15.00;;;7.20;99.90;;;;;;5064212;28;20025;-76
2020/12/26 00:02:47;;;;;;;24.10;16.02;;;7.20;99.90;;;;;;5063543;28;20109;-75
2020/12/26 00:05:13;;;;;;;21.80;15.98;;;7.20;99.90;;;;;;5064030;28;20052;-78
2020/12/26 00:07:39;;;;;;;23.30;13.25;;;7.20;99.90;;;;;;5062775;28;20028;-77
2020/12/26 00:10:05;;;;;;;26.67;15.93;;;7.20;99.90;;;;;;5061073;28;20057;-79
2020/12/26 00:12:47;;;;;;;23.02;13.32;;;7.10;99.90;;;;;;5065819;28;20064;-80
2020/12/26 00:15:14;;;;;;;23.40;15.10;;;7.10;99.90;;;;;;5062995;28;20032;-87
2020/12/26 00:17:40;;;;;;;25.30;16.35;;;7.00;99.90;;;;;;5063031;28;20021;-80
2020/12/26 00:20:06;;;;;;;29.63;17.30;;;7.10;99.90;;;;;;5060018;28;20041;-80
2020/12/26 00:22:35;;;;;;;28.35;17.80;;;7.10;99.90;;;;;;5060907;28;20024;-77
2020/12/26 00:25:01;;;;;;;30.45;17.88;;;7.10;99.90;;;;;;5055826;28;20139;-78
2020/12/26 00:27:28;;;;;;;25.08;16.77;;;7.00;99.90;;;;;;5055923;28;20491;-79
2020/12/26 00:29:54;;;;;;;28.50;17.85;;;7.00;99.90;;;;;;5044284;28;20029;-76
2020/12/26 00:32:22;;;;;;;26.52;17.33;;;7.00;99.90;;;;;;5046282;28;20028;-77
2020/12/26 00:34:48;;;;;;;31.00;18.25;;;6.90;99.90;;;;;;5051908;28;20076;-79
2020/12/26 00:37:17;;;;;;;26.75;18.15;;;7.00;99.90;;;;;;5043735;28;20030;-76
2020/12/26 00:39:44;;;;;;;26.23;18.52;;;6.90;99.90;;;;;;5049480;28;20033;-83
2020/12/26 00:42:10;;;;;;;26.02;17.45;;;7.00;99.90;;;;;;5053063;28;20029;-78
2020/12/26 00:44:36;;;;;;;26.95;17.35;;;6.90;99.90;;;;;;5055512;28;20538;-72
2020/12/26 00:47:02;;;;;;;27.88;18.83;;;6.90;99.90;;;;;;5057456;28;20025;-74
2020/12/26 00:49:28;;;;;;;29.92;18.73;;;6.90;99.90;;;;;;5051173;28;20032;-76
2020/12/26 00:51:54;;;;;;;29.17;19.83;;;6.90;99.90;;;;;;5045700;28;20379;-74
2020/12/26 00:54:20;;;;;;;29.35;18.42;;;6.90;99.90;;;;;;5047180;28;20063;-76
2020/12/26 00:56:46;;;;;;;32.92;20.00;;;6.80;99.90;;;;;;5062353;28;20102;-78
2020/12/26 00:59:11;;;;;;;36.38;22.40;;;6.90;99.90;;;;;;5056504;28;20021;-73
2020/12/26 01:01:37;;;;;;;39.08;22.52;;;6.80;99.90;;;;;;5051221;28;20063;-74
2020/12/26 01:04:03;;;;;;;31.17;21.05;;;6.80;99.90;;;;;;5041253;28;20460;-76
2020/12/26 01:06:29;;;;;;;34.13;20.60;;;6.80;99.90;;;;;;5058022;28;20028;-74
2020/12/26 01:08:54;;;;;;;27.92;18.80;;;6.80;99.90;;;;;;5057439;28;20079;-74
2020/12/26 01:11:21;;;;;;;31.23;18.98;;;6.80;99.90;;;;;;5050618;28;20033;-73
2020/12/26 01:13:46;;;;;;;34.58;19.35;;;6.80;99.90;;;;;;5047409;28;20036;-76
2020/12/26 01:16:13;;;;;;;30.75;19.85;;;6.80;99.90;;;;;;5050878;28;20444;-75
2020/12/26 01:18:39;;;;;;;36.78;21.77;;;6.80;99.90;;;;;;5056631;28;20025;-76
2020/12/26 01:21:05;;;;;;;33.72;22.65;;;6.80;99.90;;;;;;5060709;28;20032;-76
2020/12/26 01:23:32;;;;;;;38.47;21.52;;;6.80;99.90;;;;;;5054867;28;20472;-77
2020/12/26 01:25:58;;;;;;;40.17;22.67;;;6.80;99.90;;;;;;5049402;28;20529;-76
2020/12/26 01:28:23;;;;;;;40.38;21.48;;;6.80;99.90;;;;;;5037667;28;20104;-77
2020/12/26 01:30:49;;;;;;;32.97;20.92;;;6.80;99.90;;;;;;5059791;28;20119;-75
2020/12/26 01:33:15;;;;;;;34.70;20.60;;;6.80;99.90;;;;;;5055857;28;20033;-74
2020/12/26 01:35:40;;;;;;;33.20;19.52;;;6.90;99.90;;;;;;5057297;28;20021;-74
2020/12/26 01:38:06;;;;;;;33.42;21.00;;;6.90;99.90;;;;;;5044478;28;20036;-74
2020/12/26 01:40:32;;;;;;;41.88;21.27;;;6.90;99.90;;;;;;5046189;28;20029;-74
2020/12/26 01:42:58;;;;;;;38.50;21.83;;;6.90;99.90;;;;;;5046057;28;20097;-73
2020/12/26 01:45:24;;;;;;;36.53;20.90;;;6.90;99.90;;;;;;5056562;28;20485;-75
2020/12/26 01:47:51;;;;;;;28.02;16.63;;;6.90;99.90;;;;;;5050216;28;20443;-73
2020/12/26 01:50:17;;;;;;;29.05;17.38;;;6.90;99.90;;;;;;5053623;28;20041;-74
2020/12/26 01:52:45;;;;;;;29.23;16.65;;;6.80;99.90;;;;;;5057955;28;20352;-74
2020/12/26 01:55:12;;;;;;;31.75;17.65;;;6.90;99.90;;;;;;5054023;28;20033;-76
2020/12/26 01:57:48;;;;;;;29.83;17.48;;;6.90;99.90;;;;;;5056480;28;20538;-75
2020/12/26 02:00:14;;;;;;;33.58;17.08;;;6.90;99.90;;;;;;5049176;28;20070;-75
2020/12/26 02:02:41;;;;;;;34.03;17.50;;;6.90;99.90;;;;;;5052006;28;20432;-75
2020/12/26 02:05:06;;;;;;;28.92;16.95;;;6.80;99.90;;;;;;5054947;28;20041;-75
2020/12/26 02:07:32;;;;;;;31.80;17.35;;;6.80;99.90;;;;;;5058973;28;20148;-74
2020/12/26 02:09:58;;;;;;;30.48;16.95;;;6.80;99.90;;;;;;5050249;28;20021;-76
2020/12/26 02:12:24;;;;;;;32.63;18.55;;;6.80;99.90;;;;;;5056150;28;20023;-75
2020/12/26 02:14:50;;;;;;;24.88;16.58;;;6.80;99.90;;;;;;5051398;28;20027;-76
2020/12/26 02:17:29;;;;;;;30.70;17.20;;;6.80;99.90;;;;;;5041888;28;20131;-74
2020/12/26 02:19:54;;;;;;;28.80;16.05;;;6.80;99.90;;;;;;5053992;28;20025;-74
2020/12/26 02:22:20;;;;;;;28.80;16.05;;;6.80;99.90;;;;;;5063292;28;20024;-75
2020/12/26 02:24:46;;;;;;;23.88;16.75;;;6.80;99.90;;;;;;5045322;28;20021;-75
2020/12/26 02:27:12;;;;;;;32.20;17.52;;;6.80;99.90;;;;;;5041129;28;20023;-75
2020/12/26 02:29:38;;;;;;;26.35;15.70;;;6.80;99.90;;;;;;5052122;28;20115;-77
2020/12/26 02:32:04;;;;;;;26.00;14.77;;;6.80;99.90;;;;;;5066260;28;20024;-77
2020/12/26 02:34:30;;;;;;;26.80;16.58;;;6.70;99.90;;;;;;5056988;28;20027;-77
2020/12/26 02:36:55;;;;;;;23.75;15.05;;;6.80;99.90;;;;;;5043545;28;20092;-77
2020/12/26 02:39:21;;;;;;;28.50;15.75;;;6.70;99.90;;;;;;5047877;28;20433;-77
2020/12/26 02:41:48;;;;;;;24.02;14.90;;;6.70;99.90;;;;;;5043331;28;20441;-77
2020/12/26 02:44:14;;;;;;;30.77;16.95;;;6.70;99.90;;;;;;5064673;28;20378;-78
2020/12/26 02:46:40;;;;;;;29.30;17.45;;;6.70;99.90;;;;;;5050855;28;20025;-76
2020/12/26 02:49:05;;;;;;;27.80;16.42;;;6.80;99.90;;;;;;5041344;28;20524;-78
2020/12/26 02:51:33;;;;;;;29.52;16.90;;;6.80;99.90;;;;;;5041796;28;20029;-77
2020/12/26 02:53:59;;;;;;;28.48;16.27;;;6.70;99.90;;;;;;5066086;28;20394;-78
2020/12/26 02:56:25;;;;;;;28.30;17.75;;;6.70;99.90;;;;;;5066063;28;20081;-77
2020/12/26 02:58:51;;;;;;;26.55;18.27;;;6.70;99.90;;;;;;5059626;28;20017;-78
2020/12/26 03:01:17;;;;;;;23.92;15.98;;;6.70;99.90;;;;;;5055406;28;20769;-78
2020/12/26 03:03:42;;;;;;;27.92;17.13;;;6.70;99.90;;;;;;5058236;28;20024;-79
2020/12/26 03:06:10;;;;;;;26.38;16.23;;;6.60;99.90;;;;;;5068609;28;20029;-79
2020/12/26 03:08:36;;;;;;;25.00;16.02;;;6.50;99.90;;;;;;5063509;28;20475;-77
2020/12/26 03:11:01;;;;;;;25.92;15.30;;;6.50;99.90;;;;;;5054668;28;20033;-78
2020/12/26 03:13:29;;;;;;;26.55;15.93;;;6.40;99.90;;;;;;5055923;28;20021;-77
2020/12/26 03:15:57;;;;;;;32.65;16.73;;;6.40;99.90;;;;;;5052475;28;20044;-81
2020/12/26 03:18:22;;;;;;;25.63;16.13;;;6.40;99.90;;;;;;5060862;28;20528;-78
2020/12/26 03:20:48;;;;;;;28.77;17.67;;;6.30;99.90;;;;;;5064609;28;20028;-80
2020/12/26 03:23:14;;;;;;;27.65;16.63;;;6.30;99.90;;;;;;5049182;28;20025;-81
2020/12/26 03:25:39;;;;;;;26.33;15.48;;;6.40;99.90;;;;;;5054169;28;20027;-79
2020/12/26 03:28:05;;;;;;;24.75;13.73;;;6.30;99.90;;;;;;5054088;28;20497;-79
2020/12/26 03:30:31;;;;;;;25.50;16.65;;;6.30;99.90;;;;;;5065159;28;20394;-77
2020/12/26 03:32:57;;;;;;;24.42;15.80;;;6.30;99.90;;;;;;5066394;28;20026;-80
2020/12/26 03:35:22;;;;;;;30.02;16.35;;;6.20;99.90;;;;;;5063143;28;20036;-79
2020/12/26 03:37:48;;;;;;;23.55;15.30;;;6.20;99.90;;;;;;5063968;28;20027;-78
2020/12/26 03:40:14;;;;;;;24.92;16.67;;;6.20;99.90;;;;;;5057527;28;20037;-76
2020/12/26 03:42:40;;;;;;;29.17;17.67;;;6.20;99.90;;;;;;5068460;28;20082;-75
2020/12/26 03:45:05;;;;;;;25.25;17.23;;;6.20;99.90;;;;;;5066970;28;20069;-75
2020/12/26 03:47:31;;;;;;;24.42;15.93;;;6.20;99.90;;;;;;5066631;28;20107;-75
2020/12/26 03:49:57;;;;;;;29.67;17.85;;;6.20;99.90;;;;;;5069233;28;20032;-73
2020/12/26 03:52:23;;;;;;;29.90;17.13;;;6.30;99.90;;;;;;5075582;28;20029;-75
2020/12/26 03:54:49;;;;;;;35.65;19.83;;;6.20;99.90;;;;;;5062600;28;20033;-75
2020/12/26 03:57:15;;;;;;;29.20;17.27;;;6.20;99.90;;;;;;5065448;28;20518;-74
2020/12/26 03:59:41;;;;;;;27.00;18.33;;;6.10;99.90;;;;;;5066423;28;20095;-77
2020/12/26 04:02:07;;;;;;;32.03;17.75;;;6.10;99.90;;;;;;5058373;28;20057;-77
2020/12/26 04:04:33;;;;;;;38.97;20.05;;;6.10;99.90;;;;;;5056072;28;20104;-78
2020/12/26 04:06:59;;;;;;;32.55;17.42;;;6.00;99.90;;;;;;5065632;28;20477;-75
2020/12/26 04:09:25;;;;;;;26.08;18.20;;;6.10;99.90;;;;;;5066333;28;20104;-76
2020/12/26 04:11:50;;;;;;;31.10;17.70;;;6.00;99.90;;;;;;5071017;28;20025;-79
2020/12/26 04:14:16;;;;;;;29.42;17.90;;;6.00;99.90;;;;;;5071477;28;20032;-79
2020/12/26 04:16:42;;;;;;;29.55;18.55;;;5.90;99.90;;;;;;5061097;28;20025;-79
2020/12/26 04:19:07;;;;;;;33.75;20.23;;;5.90;99.90;;;;;;5041793;28;20026;-77
2020/12/26 04:21:33;;;;;;;31.33;18.98;;;5.90;99.90;;;;;;5056726;28;20024;-77
2020/12/26 04:23:59;;;;;;;32.17;19.88;;;5.90;99.90;;;;;;5057759;28;20026;-78
2020/12/26 04:26:25;;;;;;;35.50;17.95;;;5.90;99.90;;;;;;5058432;28;20021;-79
2020/12/26 04:28:51;;;;;;;35.05;17.98;;;5.80;99.90;;;;;;5057276;28;20180;-78
2020/12/26 04:31:18;;;;;;;31.65;19.42;;;5.90;99.90;;;;;;5068236;28;20033;-78
2020/12/26 04:33:45;;;;;;;33.83;20.30;;;5.80;99.90;;;;;;5069654;28;20659;-78
2020/12/26 04:36:11;;;;;;;39.30;21.23;;;5.80;99.90;;;;;;5064492;28;20527;-80
2020/12/26 04:38:37;;;;;;;32.65;20.30;;;5.90;99.90;;;;;;5058329;28;20116;-75
2020/12/26 04:41:03;;;;;;;48.92;23.10;;;5.80;99.90;;;;;;5056012;28;20495;-75
2020/12/26 04:43:29;;;;;;;35.55;21.08;;;5.80;99.90;;;;;;5067854;28;20021;-76
2020/12/26 04:45:56;;;;;;;34.65;20.92;;;5.80;99.90;;;;;;5068201;28;20101;-75
2020/12/26 04:48:24;;;;;;;32.45;20.83;;;5.80;99.90;;;;;;5060970;28;20052;-76
2020/12/26 04:50:56;;;;;;;35.60;21.98;;;5.80;99.90;;;;;;5057549;28;20037;-76
2020/12/26 04:53:40;;;;;;;37.15;20.52;;;5.80;99.90;;;;;;5065836;28;20027;-75
2020/12/26 04:56:07;;;;;;;38.67;21.35;;;5.80;99.90;;;;;;5064107;28;20016;-75
2020/12/26 04:58:38;;;;;;;38.08;21.33;;;5.80;99.90;;;;;;5057226;28;20024;-75
2020/12/26 05:01:05;;;;;;;36.45;20.27;;;5.80;99.90;;;;;;5050859;28;20021;-75
2020/12/26 05:03:34;;;;;;;37.63;21.00;;;5.80;99.90;;;;;;5046167;28;20108;-73
2020/12/26 05:06:04;;;;;;;34.53;22.20;;;5.90;99.90;;;;;;5056507;28;20085;-75
2020/12/26 05:08:31;;;;;;;44.67;23.30;;;5.80;99.90;;;;;;5063137;28;20020;-74
2020/12/26 05:10:57;;;;;;;43.20;23.13;;;5.80;99.90;;;;;;5049718;28;20115;-76
2020/12/26 05:13:24;;;;;;;37.38;21.75;;;5.80;99.90;;;;;;5045698;28;20155;-77
2020/12/26 05:15:52;;;;;;;41.30;23.50;;;5.80;99.90;;;;;;5050410;28;20021;-77
2020/12/26 05:18:17;;;;;;;45.17;25.88;;;5.90;99.90;;;;;;5050492;28;20027;-76
2020/12/26 05:20:44;;;;;;;46.20;25.58;;;5.90;99.90;;;;;;5066444;28;20539;-76
2020/12/26 05:23:15;;;;;;;54.13;28.40;;;5.90;99.90;;;;;;5052241;28;20029;-77
2020/12/26 05:25:49;;;;;;;40.00;23.65;;;5.90;99.90;;;;;;5054018;28;20381;-76
2020/12/26 05:28:31;;;;;;;54.20;24.42;;;5.80;99.90;;;;;;5043954;28;20025;-74
2020/12/26 05:30:58;;;;;;;37.55;22.80;;;5.80;99.90;;;;;;5062807;28;20036;-74
2020/12/26 05:33:29;;;;;;;38.00;23.98;;;5.70;99.90;;;;;;5046201;28;20523;-74
2020/12/26 05:36:04;;;;;;;41.67;25.20;;;5.70;99.90;;;;;;5057420;28;20409;-74
2020/12/26 05:38:30;;;;;;;43.63;24.65;;;5.60;99.90;;;;;;5056264;28;20463;-74
2020/12/26 05:40:58;;;;;;;41.15;24.67;;;5.70;99.90;;;;;;5055174;28;20068;-75
2020/12/26 05:43:26;;;;;;;46.50;25.38;;;5.70;99.90;;;;;;5055744;28;20427;-75
2020/12/26 05:45:52;;;;;;;46.10;25.48;;;5.70;99.90;;;;;;5066896;28;20024;-75
2020/12/26 05:48:23;;;;;;;41.03;23.48;;;5.70;99.90;;;;;;5047916;28;20021;-74
2020/12/26 05:50:54;;;;;;;54.42;26.33;;;5.60;99.90;;;;;;5038628;28;20444;-75
2020/12/26 05:53:24;;;;;;;44.47;24.73;;;5.70;99.90;;;;;;5060164;28;20460;-78
2020/12/26 05:55:50;;;;;;;48.72;27.85;;;5.80;99.90;;;;;;5063310;28;20025;-75
2020/12/26 05:58:20;;;;;;;46.63;25.70;;;5.80;99.90;;;;;;5056372;28;20028;-76
2020/12/26 06:00:46;;;;;;;57.05;32.83;;;5.80;99.90;;;;;;5052318;28;20064;-76
2020/12/26 06:03:25;;;;;;;58.72;30.20;;;5.80;99.90;;;;;;5051120;28;20077;-80
2020/12/26 06:06:04;;;;;;;52.50;27.83;;;5.70;99.90;;;;;;5046761;28;20381;-78
2020/12/26 06:08:30;;;;;;;62.00;26.55;;;5.70;99.90;;;;;;5049294;28;20091;-78
2020/12/26 06:11:01;;;;;;;64.18;28.70;;;5.60;99.90;;;;;;5053206;28;20029;-78
2020/12/26 06:13:29;;;;;;;73.40;31.27;;;5.60;99.90;;;;;;5055828;28;20364;-79
2020/12/26 06:16:08;;;;;;;64.10;30.60;;;5.60;99.90;;;;;;5055995;28;20418;-80
2020/12/26 06:18:46;;;;;;;74.43;29.63;;;5.60;99.90;;;;;;5060501;28;20070;-78
2020/12/26 06:21:12;;;;;;;64.03;27.27;;;5.60;99.90;;;;;;5062204;28;20029;-80
2020/12/26 06:23:39;;;;;;;54.28;25.50;;;5.50;99.90;;;;;;5057644;28;20036;-77
2020/12/26 06:26:05;;;;;;;57.10;28.20;;;5.50;99.90;;;;;;5056380;28;20028;-78
2020/12/26 06:28:35;;;;;;;59.40;32.30;;;5.60;99.90;;;;;;5043961;28;20029;-77
2020/12/26 06:31:10;;;;;;;50.42;27.25;;;5.60;99.90;;;;;;5058048;28;20091;-76
2020/12/26 06:33:43;;;;;;;56.83;31.20;;;5.70;99.90;;;;;;5062601;28;20052;-77
2020/12/26 06:36:11;;;;;;;46.35;26.13;;;5.70;99.90;;;;;;5053173;28;20078;-77
2020/12/26 06:38:38;;;;;;;41.33;24.95;;;5.70;99.90;;;;;;5056041;28;20087;-78
2020/12/26 06:41:13;;;;;;;44.50;26.52;;;5.70;99.90;;;;;;5047294;28;20079;-77
2020/12/26 06:43:39;;;;;;;37.53;24.02;;;5.70;99.90;;;;;;5060658;28;20055;-76
2020/12/26 06:46:28;;;;;;;40.83;23.35;;;5.70;99.90;;;;;;5051969;28;20060;-76
2020/12/26 06:48:55;;;;;;;43.95;23.98;;;5.70;99.90;;;;;;5049843;28;20037;-77
2020/12/26 06:51:21;;;;;;;39.05;20.50;;;5.70;99.90;;;;;;5046050;28;20477;-78
2020/12/26 06:53:47;;;;;;;42.17;23.98;;;5.70;99.90;;;;;;5054084;28;20108;-75
2020/12/26 06:56:32;;;;;;;44.03;22.42;;;5.60;99.90;;;;;;5059020;28;20029;-75
2020/12/26 06:58:57;;;;;;;38.70;24.23;;;5.60;99.90;;;;;;5054406;28;20028;-73
2020/12/26 07:01:25;;;;;;;38.72;23.60;;;5.60;99.90;;;;;;5052338;28;20060;-74
2020/12/26 07:04:13;;;;;;;37.28;20.02;;;5.60;99.90;;;;;;5055651;28;20059;-74
2020/12/26 07:06:50;;;;;;;43.95;23.48;;;5.60;99.90;;;;;;5056267;28;20022;-74
2020/12/26 07:09:17;;;;;;;37.53;21.77;;;5.60;99.90;;;;;;5055086;28;20119;-74
2020/12/26 07:11:47;;;;;;;37.72;22.02;;;5.60;99.90;;;;;;5045460;28;20043;-75
2020/12/26 07:14:31;;;;;;;70.93;40.80;;;5.60;99.90;;;;;;5047254;28;20115;-72
2020/12/26 07:17:26;;;;;;;53.42;28.17;;;5.60;99.90;;;;;;5048549;28;20040;-73
2020/12/26 07:19:58;;;;;;;38.47;22.75;;;5.60;99.90;;;;;;5037544;28;20038;-73
2020/12/26 07:22:30;;;;;;;46.55;25.88;;;5.60;99.90;;;;;;5052899;28;20100;-71
2020/12/26 07:25:00;;;;;;;46.88;25.95;;;5.50;99.90;;;;;;5043074;28;20053;-73
2020/12/26 07:27:32;;;;;;;42.80;22.90;;;5.40;99.90;;;;;;5041226;28;20107;-73
2020/12/26 07:30:16;;;;;;;48.53;24.73;;;5.50;99.90;;;;;;5036566;28;20028;-73
2020/12/26 07:32:47;;;;;;;41.83;22.58;;;5.40;99.90;;;;;;5037345;28;20094;-73
2020/12/26 07:35:13;;;;;;;43.40;25.20;;;5.40;99.90;;;;;;5052522;28;20084;-74
2020/12/26 07:37:40;;;;;;;36.90;19.63;;;5.70;99.90;;;;;;5053267;28;20021;-74
2020/12/26 07:40:07;;;;;;;35.65;20.05;;;5.50;99.90;;;;;;5041544;28;20418;-73
2020/12/26 07:42:34;;;;;;;40.60;22.48;;;5.60;99.90;;;;;;5038688;28;20459;-73
2020/12/26 07:45:11;;;;;;;36.65;21.33;;;5.80;99.90;;;;;;5059876;28;20538;-73
2020/12/26 07:47:41;;;;;;;31.58;19.40;;;6.10;99.90;;;;;;5056940;28;20021;-72
2020/12/26 07:50:08;;;;;;;35.22;21.65;;;6.00;99.90;;;;;;5047337;28;20033;-74
2020/12/26 07:52:34;;;;;;;33.55;20.83;;;6.20;99.90;;;;;;5039265;28;20053;-71
2020/12/26 07:55:01;;;;;;;32.35;20.48;;;6.10;99.90;;;;;;5043128;28;20075;-73
2020/12/26 07:57:28;;;;;;;41.50;22.75;;;5.90;99.90;;;;;;5057630;28;20467;-74
2020/12/26 07:59:54;;;;;;;43.17;21.30;;;5.80;99.90;;;;;;5054998;28;20028;-73
2020/12/26 08:02:20;;;;;;;37.63;21.15;;;5.80;99.90;;;;;;5042044;28;20041;-74
2020/12/26 08:04:47;;;;;;;32.45;18.52;;;5.60;99.90;;;;;;5038466;28;20026;-72
2020/12/26 08:07:14;;;;;;;35.10;20.73;;;5.60;99.90;;;;;;5040907;28;20029;-72
2020/12/26 08:09:54;;;;;;;38.30;19.95;;;5.40;99.90;;;;;;5057767;28;20020;-75
2020/12/26 08:12:21;;;;;;;42.92;22.40;;;5.40;99.90;;;;;;5047710;28;20032;-76
2020/12/26 08:14:57;;;;;;;44.50;23.60;;;5.40;99.90;;;;;;5044426;28;20028;-74
2020/12/26 08:17:24;;;;;;;48.30;26.25;;;5.30;99.90;;;;;;5041614;28;20029;-72
2020/12/26 08:20:00;;;;;;;54.47;28.10;;;5.40;99.90;;;;;;5069406;28;20029;-72
2020/12/26 08:22:27;;;;;;;45.00;24.50;;;5.40;99.90;;;;;;5063873;28;20660;-71
2020/12/26 08:25:10;;;;;;;47.83;25.08;;;5.40;99.90;;;;;;5047575;28;20021;-72
2020/12/26 08:27:37;;;;;;;42.45;22.27;;;5.30;99.90;;;;;;5044174;28;20032;-71
2020/12/26 08:30:28;;;;;;;43.28;23.15;;;5.40;99.90;;;;;;5043791;28;20056;-75
2020/12/26 08:33:30;;;;;;;41.03;22.00;;;5.40;99.90;;;;;;5050787;28;20036;-75
2020/12/26 08:36:08;;;;;;;33.90;18.83;;;5.40;99.90;;;;;;5048271;28;20044;-75
2020/12/26 08:39:00;;;;;;;36.35;21.70;;;5.40;99.90;;;;;;5047406;28;20018;-71
2020/12/26 08:41:27;;;;;;;38.08;20.40;;;5.30;99.90;;;;;;5041640;28;20099;-74
2020/12/26 08:43:54;;;;;;;44.83;24.67;;;5.30;99.90;;;;;;5049491;28;20017;-73
2020/12/26 08:46:25;;;;;;;43.88;24.73;;;5.20;99.90;;;;;;5048563;28;20021;-73
2020/12/26 08:48:52;;;;;;;43.67;22.73;;;5.30;99.90;;;;;;5043939;28;20502;-74
2020/12/26 08:51:20;;;;;;;36.00;20.25;;;5.30;99.90;;;;;;5040609;28;20033;-75
2020/12/26 08:53:47;;;;;;;43.15;22.92;;;5.40;99.90;;;;;;5056300;28;20027;-74
2020/12/26 08:56:13;;;;;;;45.75;25.60;;;5.50;99.90;;;;;;5052610;28;20017;-74
2020/12/26 08:58:39;;;;;;;34.33;20.10;;;5.40;99.90;;;;;;5045557;28;20045;-74
2020/12/26 09:01:05;;;;;;;37.90;18.73;;;5.40;99.90;;;;;;5040765;28;20045;-76
2020/12/26 09:03:33;;;;;;;33.42;19.90;;;5.40;99.90;;;;;;5042210;28;20070;-74
2020/12/26 09:06:01;;;;;;;39.97;22.35;;;5.50;99.90;;;;;;5054849;28;20021;-75
2020/12/26 09:08:35;;;;;;;39.75;22.23;;;5.40;99.90;;;;;;5051973;28;20395;-74
2020/12/26 09:11:06;;;;;;;32.85;20.75;;;5.40;99.90;;;;;;5047200;28;20041;-74
2020/12/26 09:13:35;;;;;;;31.85;18.35;;;5.40;99.90;;;;;;5047754;28;20063;-72
2020/12/26 09:16:10;;;;;;;30.52;16.30;;;5.50;99.90;;;;;;5053493;28;20036;-73
2020/12/26 09:18:47;;;;;;;30.67;17.38;;;5.50;99.90;;;;;;5056944;28;20104;-73
2020/12/26 09:21:39;;;;;;;27.95;16.80;;;5.40;99.90;;;;;;5059725;28;20059;-74
2020/12/26 09:24:19;;;;;;;30.50;18.85;;;5.30;99.90;;;;;;5052017;28;20055;-73
2020/12/26 09:26:45;;;;;;;35.50;19.90;;;5.30;99.90;;;;;;5042555;28;20021;-73
2020/12/26 09:29:20;;;;;;;34.78;19.05;;;5.20;99.90;;;;;;5036509;28;20033;-75
2020/12/26 09:31:46;;;;;;;36.95;22.00;;;5.20;99.90;;;;;;5042648;28;20029;-72
2020/12/26 09:34:15;;;;;;;38.47;17.88;;;5.20;99.90;;;;;;5062416;28;20108;-74
2020/12/26 09:36:41;;;;;;;30.40;15.82;;;5.20;99.90;;;;;;5045896;28;20044;-74
2020/12/26 09:39:07;;;;;;;36.00;19.17;;;5.10;99.90;;;;;;5040866;28;20025;-75
2020/12/26 09:41:47;;;;;;;34.90;19.30;;;5.20;99.90;;;;;;5039534;28;20541;-73
2020/12/26 09:44:13;;;;;;;35.03;19.75;;;5.10;99.90;;;;;;5053031;28;20070;-72
2020/12/26 09:46:40;;;;;;;30.00;16.65;;;5.10;99.90;;;;;;5043262;28;20383;-74
2020/12/26 09:49:06;;;;;;;27.25;16.05;;;5.10;99.90;;;;;;5039735;28;20379;-74
2020/12/26 09:51:31;;;;;;;33.08;18.35;;;5.10;99.90;;;;;;5042667;28;20026;-74
2020/12/26 09:53:57;;;;;;;29.85;17.83;;;5.20;99.90;;;;;;5038221;28;20041;-75
2020/12/26 09:56:23;;;;;;;37.20;20.17;;;5.00;99.90;;;;;;5035563;28;20025;-74
2020/12/26 09:58:49;;;;;;;47.53;24.45;;;5.10;99.90;;;;;;5042033;28;20025;-73
2020/12/26 10:01:16;;;;;;;39.28;21.88;;;5.00;99.90;;;;;;5047492;28;20036;-71
2020/12/26 10:03:43;;;;;;;50.17;25.85;;;4.90;99.90;;;;;;5044847;28;20029;-71
2020/12/26 10:06:19;;;;;;;51.97;26.55;;;4.90;99.90;;;;;;5043447;28;20037;-72
2020/12/26 10:08:47;;;;;;;37.80;21.20;;;4.90;99.90;;;;;;5040080;28;20025;-73
2020/12/26 10:11:17;;;;;;;65.82;30.63;;;4.90;99.90;;;;;;5037977;28;20037;-75
2020/12/26 10:13:43;;;;;;;57.78;30.25;;;4.80;99.90;;;;;;5039148;28;20037;-75
2020/12/26 10:16:09;;;;;;;40.53;22.90;;;4.80;99.90;;;;;;5041173;28;20090;-73
2020/12/26 10:18:35;;;;;;;48.72;25.50;;;4.90;99.90;;;;;;5036166;28;20475;-73
2020/12/26 10:21:01;;;;;;;37.17;22.58;;;4.80;99.90;;;;;;5039539;28;20059;-72
2020/12/26 10:23:27;;;;;;;52.05;23.77;;;4.80;99.90;;;;;;5039112;28;20831;-72
2020/12/26 10:25:54;;;;;;;34.35;18.88;;;4.80;99.90;;;;;;5038379;28;20018;-74
2020/12/26 10:28:20;;;;;;;44.28;23.67;;;4.80;99.90;;;;;;5035931;28;20065;-74
2020/12/26 10:30:48;;;;;;;47.72;23.55;;;4.90;99.90;;;;;;5047965;28;20069;-73
2020/12/26 10:33:14;;;;;;;40.85;21.63;;;4.80;99.90;;;;;;5050209;28;20028;-73
2020/12/26 10:35:41;;;;;;;38.72;22.05;;;4.80;99.90;;;;;;5049301;28;20419;-76
2020/12/26 10:38:07;;;;;;;42.15;22.45;;;4.80;99.90;;;;;;5056513;28;20112;-73
2020/12/26 10:40:33;;;;;;;44.10;22.70;;;4.80;99.90;;;;;;5046618;28;20104;-79
2020/12/26 10:42:59;;;;;;;48.33;23.88;;;4.70;99.90;;;;;;5048244;28;20025;-78
2020/12/26 10:45:25;;;;;;;44.05;21.38;;;4.70;99.90;;;;;;5050075;28;20531;-81
2020/12/26 10:47:50;;;;;;;39.45;20.55;;;4.70;99.90;;;;;;5045762;28;20031;-77
2020/12/26 10:50:16;;;;;;;49.05;25.48;;;4.90;99.90;;;;;;5043327;28;20120;-77
2020/12/26 10:52:43;;;;;;;45.83;25.05;;;4.80;99.90;;;;;;5039283;28;20029;-73
2020/12/26 10:55:16;;;;;;;47.72;28.33;;;4.70;99.90;;;;;;5036892;28;20036;-75
2020/12/26 10:57:43;;;;;;;38.92;21.40;;;4.70;99.90;;;;;;5035676;28;20028;-72
2020/12/26 11:00:10;;;;;;;42.92;24.25;;;4.70;99.90;;;;;;5035731;28;20072;-76
2020/12/26 11:02:36;;;;;;;41.33;19.95;;;4.70;99.90;;;;;;5034826;28;20464;-78
2020/12/26 11:05:03;;;;;;;43.88;21.05;;;4.70;99.90;;;;;;5038314;28;20439;-75
2020/12/26 11:07:29;;;;;;;39.25;17.27;;;4.60;99.90;;;;;;5039608;28;20137;-76
2020/12/26 11:09:55;;;;;;;37.47;20.30;;;4.70;99.90;;;;;;5059774;28;20017;-74
2020/12/26 11:12:20;;;;;;;38.17;19.52;;;4.70;99.90;;;;;;5041700;28;20067;-73
2020/12/26 11:14:47;;;;;;;33.38;18.63;;;4.80;99.90;;;;;;5044475;28;20452;-78
2020/12/26 11:17:13;;;;;;;32.85;17.20;;;4.80;99.90;;;;;;5027764;28;20026;-76
2020/12/26 11:19:40;;;;;;;33.55;20.05;;;4.80;99.90;;;;;;5043668;28;20484;-73
2020/12/26 11:22:06;;;;;;;39.17;21.17;;;4.70;99.90;;;;;;5040466;28;20160;-73
2020/12/26 11:24:31;;;;;;;40.28;20.77;;;4.70;99.90;;;;;;5033191;28;20100;-71
2020/12/26 11:26:57;;;;;;;45.75;20.83;;;4.80;99.90;;;;;;5044579;28;20033;-75
2020/12/26 11:29:23;;;;;;;28.88;17.30;;;4.70;99.90;;;;;;5050537;28;20025;-72
2020/12/26 11:31:49;;;;;;;29.25;15.45;;;4.70;99.90;;;;;;5042170;28;20060;-73
2020/12/26 11:34:15;;;;;;;35.97;17.38;;;4.70;99.90;;;;;;5038093;28;20022;-74
2020/12/26 11:36:41;;;;;;;30.60;17.98;;;4.70;99.90;;;;;;5044028;28;20099;-72
2020/12/26 11:39:08;;;;;;;30.33;16.85;;;4.70;99.90;;;;;;5037628;28;20029;-74
2020/12/26 11:41:34;;;;;;;34.45;16.58;;;4.60;99.90;;;;;;5042204;28;20025;-74
2020/12/26 11:43:59;;;;;;;36.05;17.92;;;4.60;99.90;;;;;;5039987;28;20099;-75
2020/12/26 11:46:26;;;;;;;26.45;17.77;;;4.60;99.90;;;;;;5038797;28;20029;-75
2020/12/26 11:48:51;;;;;;;37.30;19.52;;;4.60;99.90;;;;;;5033888;28;20021;-74
2020/12/26 11:51:17;;;;;;;39.50;20.20;;;4.60;99.90;;;;;;5038968;28;20048;-70
2020/12/26 11:53:43;;;;;;;36.55;18.85;;;4.60;99.90;;;;;;5048196;28;20104;-71
2020/12/26 11:56:14;;;;;;;45.03;22.05;;;4.60;99.90;;;;;;5042865;28;20037;-74
2020/12/26 11:58:40;;;;;;;38.80;20.45;;;4.70;99.90;;;;;;5053836;28;20031;-73
2020/12/26 12:01:07;;;;;;;34.88;18.65;;;4.60;99.90;;;;;;5045633;28;20043;-72
2020/12/26 12:03:34;;;;;;;23.73;14.68;;;4.60;99.90;;;;;;5043324;28;20029;-77
2020/12/26 12:06:01;;;;;;;28.58;16.15;;;4.50;99.90;;;;;;5034688;28;20108;-75
2020/12/26 12:08:27;;;;;;;29.70;15.57;;;4.60;99.90;;;;;;5037424;28;20419;-72
2020/12/26 12:10:53;;;;;;;37.15;19.75;;;4.60;99.90;;;;;;5038875;28;20033;-73
2020/12/26 12:13:19;;;;;;;40.25;21.20;;;4.60;99.90;;;;;;5040371;28;20034;-75
2020/12/26 12:15:45;;;;;;;40.42;21.88;;;4.60;99.90;;;;;;5053787;28;20170;-74
2020/12/26 12:18:11;;;;;;;32.35;17.33;;;4.60;99.90;;;;;;5035622;28;20036;-71
2020/12/26 12:20:37;;;;;;;33.65;17.10;;;4.70;99.90;;;;;;5034640;28;20112;-74
2020/12/26 12:23:04;;;;;;;23.55;15.40;;;4.60;99.90;;;;;;5039523;28;20108;-73
2020/12/26 12:25:30;;;;;;;31.98;18.63;;;4.70;99.90;;;;;;5046225;28;20028;-72
2020/12/26 12:27:59;;;;;;;38.80;19.90;;;4.60;99.90;;;;;;5038726;28;20467;-76
2020/12/26 12:30:26;;;;;;;30.98;17.85;;;4.60;99.90;;;;;;5043094;28;20044;-76
2020/12/26 12:32:52;;;;;;;35.13;18.63;;;4.60;99.90;;;;;;5036896;28;20044;-76
2020/12/26 12:35:18;;;;;;;36.40;20.13;;;4.60;99.90;;;;;;5037220;28;20108;-78
2020/12/26 12:37:50;;;;;;;29.85;18.85;;;4.60;99.90;;;;;;5039456;28;20148;-74
2020/12/26 12:40:18;;;;;;;32.63;17.73;;;4.50;99.90;;;;;;5041029;28;20582;-74